createdAt,value
2017-10-15T00:00:34.137Z,30.00
2017-10-15T00:03:01.820Z,20.93
2017-10-15T00:05:29.487Z,19.13
2017-10-15T00:07:57.120Z,28.43
2017-10-15T00:10:24.796Z,23.10
2017-10-15T00:12:52.459Z,18.07
2017-10-15T00:15:20.076Z,21.90
2017-10-15T00:17:47.687Z,22.83
2017-10-15T00:20:15.359Z,15.33
2017-10-15T00:22:42.978Z,16.90
2017-10-15T00:25:10.644Z,16.83
2017-10-15T00:27:38.311Z,21.63
2017-10-15T00:30:05.927Z,25.70
2017-10-15T00:32:33.611Z,23.77
2017-10-15T00:35:01.293Z,19.27
2017-10-15T00:37:28.972Z,19.30
2017-10-15T00:39:56.587Z,19.40
2017-10-15T00:42:24.251Z,22.17
2017-10-15T00:44:51.880Z,19.90
2017-10-15T00:47:19.547Z,18.43
2017-10-15T00:49:47.216Z,20.83
2017-10-15T00:52:14.892Z,21.57
2017-10-15T00:54:42.509Z,25.40
2017-10-15T00:57:10.194Z,25.37
2017-10-15T00:59:37.836Z,23.10
2017-10-15T01:02:05.456Z,21.27
2017-10-15T01:04:33.115Z,24.03
2017-10-15T01:07:00.736Z,18.90
2017-10-15T01:09:28.418Z,18.77
2017-10-15T01:11:56.144Z,17.00
2017-10-15T01:14:23.750Z,17.40
2017-10-15T01:16:51.355Z,23.57
2017-10-15T01:19:19.024Z,22.87
2017-10-15T01:21:46.655Z,26.37
2017-10-15T01:24:14.335Z,19.47
2017-10-15T01:26:42.010Z,18.87
2017-10-15T01:29:09.756Z,21.10
2017-10-15T01:31:37.438Z,28.73
2017-10-15T01:34:05.199Z,27.33
2017-10-15T01:36:32.844Z,23.77
2017-10-15T01:39:00.531Z,21.70
2017-10-15T01:41:28.203Z,19.63
2017-10-15T01:43:55.827Z,20.20
2017-10-15T01:46:23.508Z,19.63
2017-10-15T01:48:51.176Z,17.70
2017-10-15T01:51:18.868Z,22.13
2017-10-15T01:53:46.492Z,22.97
2017-10-15T01:56:14.219Z,20.00
2017-10-15T01:58:41.850Z,25.10
2017-10-15T02:01:09.458Z,19.13
2017-10-15T02:03:37.126Z,27.10
2017-10-15T02:06:04.761Z,19.77
2017-10-15T02:08:32.379Z,19.33
2017-10-15T02:11:00.099Z,32.33
2017-10-15T02:13:27.716Z,17.93
2017-10-15T02:15:55.412Z,23.80
2017-10-15T02:18:23.079Z,22.07
2017-10-15T02:20:50.695Z,27.90
2017-10-15T02:23:18.318Z,30.80
2017-10-15T02:25:45.987Z,25.60
2017-10-15T02:28:13.602Z,25.90
2017-10-15T02:30:41.217Z,18.10
2017-10-15T02:33:08.887Z,26.37
2017-10-15T02:35:36.507Z,26.50
2017-10-15T02:38:04.216Z,23.97
2017-10-15T02:40:31.895Z,28.73
2017-10-15T02:42:59.567Z,28.40
2017-10-15T02:45:27.253Z,27.37
2017-10-15T02:47:54.940Z,26.93
2017-10-15T02:50:22.553Z,31.47
2017-10-15T02:52:50.250Z,38.03
2017-10-15T02:55:17.915Z,42.20
2017-10-15T02:57:45.527Z,39.43
2017-10-15T03:00:13.126Z,32.73
2017-10-15T03:02:40.783Z,28.67
2017-10-15T03:05:08.419Z,25.73
2017-10-15T03:07:36.052Z,24.00
2017-10-15T03:10:03.735Z,26.70
2017-10-15T03:12:31.355Z,24.17
2017-10-15T03:14:58.971Z,31.63
2017-10-15T03:17:26.636Z,31.50
2017-10-15T03:19:54.311Z,34.87
2017-10-15T03:22:21.926Z,24.83
2017-10-15T03:24:49.635Z,32.33
2017-10-15T03:27:17.251Z,33.70
2017-10-15T03:29:44.925Z,30.20
2017-10-15T03:32:12.591Z,25.00
2017-10-15T03:34:40.207Z,28.60
2017-10-15T03:37:07.819Z,26.20
2017-10-15T03:39:35.482Z,39.67
2017-10-15T03:42:03.164Z,33.03
2017-10-15T03:44:30.845Z,27.73
2017-10-15T03:46:58.519Z,27.10
2017-10-15T03:49:26.188Z,29.87
2017-10-15T03:51:53.817Z,26.23
2017-10-15T03:54:21.555Z,26.47
2017-10-15T03:56:49.172Z,32.77
2017-10-15T03:59:16.804Z,36.17
2017-10-15T04:01:44.475Z,21.13
2017-10-15T04:04:12.083Z,26.63
2017-10-15T04:06:39.692Z,44.33
2017-10-15T04:09:07.368Z,26.93
2017-10-15T04:11:34.991Z,43.97
2017-10-15T04:14:02.660Z,29.27
2017-10-15T04:16:30.391Z,27.27
2017-10-15T04:18:58.071Z,28.73
2017-10-15T04:21:25.704Z,29.77
2017-10-15T04:23:53.451Z,25.93
2017-10-15T04:26:21.126Z,21.10
2017-10-15T04:28:48.795Z,20.67
2017-10-15T04:31:16.479Z,25.83
2017-10-15T04:33:44.144Z,25.87
2017-10-15T04:36:11.831Z,28.47
2017-10-15T04:38:39.517Z,28.80
2017-10-15T04:41:07.188Z,23.47
2017-10-15T04:43:35.343Z,21.57
2017-10-15T04:46:03.003Z,20.30
2017-10-15T04:48:30.679Z,22.63
2017-10-15T04:50:58.294Z,22.77
2017-10-15T04:53:25.968Z,39.80
2017-10-15T04:55:53.587Z,33.23
2017-10-15T04:58:21.212Z,27.63
2017-10-15T05:00:48.879Z,38.13
2017-10-15T05:03:16.560Z,79.27
2017-10-15T05:05:44.241Z,56.73
2017-10-15T05:08:11.905Z,54.73
2017-10-15T05:10:39.518Z,45.27
2017-10-15T05:13:07.199Z,36.30
2017-10-15T05:15:34.960Z,28.57
2017-10-15T05:18:02.648Z,28.93
2017-10-15T05:20:30.261Z,17.60
2017-10-15T05:22:57.925Z,64.57
2017-10-15T05:25:25.543Z,99.30
2017-10-15T05:27:53.151Z,71.20
2017-10-15T05:30:20.831Z,30.80
2017-10-15T05:32:48.517Z,35.77
2017-10-15T05:35:16.146Z,28.30
2017-10-15T05:37:43.819Z,29.47
2017-10-15T05:40:11.427Z,24.77
2017-10-15T05:42:39.050Z,22.40
2017-10-15T05:45:06.734Z,30.30
2017-10-15T05:47:34.368Z,30.13
2017-10-15T05:50:01.999Z,34.40
2017-10-15T05:52:29.684Z,21.77
2017-10-15T05:54:57.307Z,17.73
2017-10-15T05:57:24.918Z,22.20
2017-10-15T05:59:52.588Z,15.47
2017-10-15T06:02:20.272Z,17.13
2017-10-15T06:04:47.946Z,21.70
2017-10-15T06:07:15.631Z,22.80
2017-10-15T06:09:43.372Z,24.63
2017-10-15T06:12:11.007Z,15.27
2017-10-15T06:14:38.749Z,19.50
2017-10-15T06:17:06.434Z,19.00
2017-10-15T06:19:34.205Z,25.35
2017-10-15T06:22:01.876Z,17.53
2017-10-15T06:24:29.499Z,19.47
2017-10-15T06:26:57.119Z,17.30
2017-10-15T06:29:24.787Z,14.20
2017-10-15T06:31:52.467Z,23.20
2017-10-15T06:34:20.080Z,16.80
2017-10-15T06:36:47.744Z,13.97
2017-10-15T06:39:15.356Z,12.80
2017-10-15T06:41:42.963Z,13.37
2017-10-15T06:44:10.627Z,15.57
2017-10-15T06:46:38.254Z,18.33
2017-10-15T06:49:05.884Z,21.60
2017-10-15T06:51:33.624Z,26.43
2017-10-15T06:54:01.299Z,19.83
2017-10-15T06:56:28.911Z,14.63
2017-10-15T06:58:56.571Z,21.53
2017-10-15T07:01:24.195Z,14.07
2017-10-15T07:03:51.865Z,14.83
2017-10-15T07:06:19.529Z,14.60
2017-10-15T07:08:47.158Z,15.77
2017-10-15T07:11:14.840Z,22.80
2017-10-15T07:13:42.512Z,23.33
2017-10-15T07:16:10.215Z,18.53
2017-10-15T07:18:37.834Z,18.97
2017-10-15T07:21:05.497Z,17.05
2017-10-15T07:23:33.122Z,19.67
2017-10-15T07:26:00.792Z,16.98
2017-10-15T07:28:28.507Z,16.97
2017-10-15T07:30:56.179Z,28.43
2017-10-15T07:33:23.844Z,19.67
2017-10-15T07:35:51.527Z,14.47
2017-10-15T07:38:19.144Z,22.53
2017-10-15T07:40:46.769Z,26.40
2017-10-15T07:43:14.497Z,30.33
2017-10-15T07:45:42.115Z,21.13
2017-10-15T07:48:09.804Z,16.50
2017-10-15T07:50:37.466Z,13.13
2017-10-15T07:53:05.140Z,15.20
2017-10-15T07:55:32.755Z,15.30
2017-10-15T07:58:00.484Z,12.67
2017-10-15T08:00:28.123Z,23.27
2017-10-15T08:02:55.740Z,13.70
2017-10-15T08:05:23.471Z,32.17
2017-10-15T08:07:51.092Z,26.93
2017-10-15T08:10:18.732Z,30.60
2017-10-15T08:12:46.451Z,27.60
2017-10-15T08:15:14.067Z,21.57
2017-10-15T08:17:41.682Z,19.33
2017-10-15T08:20:09.355Z,20.75
2017-10-15T08:22:37.035Z,21.80
2017-10-15T08:25:04.651Z,22.80
2017-10-15T08:27:32.320Z,21.20
2017-10-15T08:29:59.928Z,26.07
2017-10-15T08:32:27.560Z,40.83
2017-10-15T08:34:55.271Z,16.97
2017-10-15T08:37:22.897Z,10.37
2017-10-15T08:39:50.533Z,55.90
2017-10-15T08:42:18.212Z,43.40
2017-10-15T08:44:45.972Z,10.00
2017-10-15T08:47:13.591Z,13.20
2017-10-15T08:49:41.308Z,13.60
2017-10-15T08:52:08.975Z,13.33
2017-10-15T08:54:36.593Z,14.33
2017-10-15T08:57:04.375Z,8.10
2017-10-15T08:59:32.041Z,21.27
2017-10-15T09:01:59.677Z,16.07
2017-10-15T09:04:27.360Z,25.57
2017-10-15T09:06:55.045Z,16.27
2017-10-15T09:09:22.692Z,17.40
2017-10-15T09:11:50.356Z,20.00
2017-10-15T09:14:17.988Z,19.07
2017-10-15T09:16:45.615Z,22.17
2017-10-15T09:19:13.349Z,21.45
2017-10-15T09:21:41.019Z,10.90
2017-10-15T09:24:08.627Z,9.43
2017-10-15T09:26:36.287Z,9.77
2017-10-15T09:29:03.904Z,16.23
2017-10-15T09:31:31.514Z,7.73
2017-10-15T09:33:59.175Z,17.17
2017-10-15T09:36:26.839Z,15.23
2017-10-15T09:38:54.456Z,12.73
2017-10-15T09:41:22.173Z,11.43
2017-10-15T09:43:49.790Z,18.73
2017-10-15T09:46:17.394Z,11.03
2017-10-15T09:48:45.116Z,10.30
2017-10-15T09:51:12.716Z,9.13
2017-10-15T09:53:40.323Z,10.50
2017-10-15T09:56:07.967Z,11.50
2017-10-15T09:58:35.580Z,11.80
2017-10-15T10:01:03.252Z,18.67
2017-10-15T10:03:30.972Z,11.60
2017-10-15T10:05:58.630Z,9.70
2017-10-15T10:08:26.291Z,7.60
2017-10-15T10:10:53.959Z,10.37
2017-10-15T10:13:21.571Z,10.37
2017-10-15T10:15:49.183Z,11.40
2017-10-15T10:18:16.843Z,32.17
2017-10-15T10:20:44.455Z,11.60
2017-10-15T10:23:12.063Z,12.00
2017-10-15T10:25:39.779Z,8.37
2017-10-15T10:28:07.395Z,10.10
2017-10-15T10:30:35.003Z,17.10
2017-10-15T10:33:02.691Z,10.33
2017-10-15T10:35:30.307Z,14.17
2017-10-15T10:37:57.964Z,7.27
2017-10-15T10:40:25.628Z,9.60
2017-10-15T10:42:53.304Z,10.47
2017-10-15T10:45:20.919Z,10.27
2017-10-15T10:47:48.567Z,8.63
2017-10-15T10:50:16.237Z,10.13
2017-10-15T10:52:43.835Z,12.20
2017-10-15T10:55:11.482Z,9.63
2017-10-15T10:57:39.091Z,12.00
2017-10-15T11:00:06.706Z,10.73
2017-10-15T11:02:34.356Z,11.80
2017-10-15T11:05:01.988Z,14.87
2017-10-15T11:07:29.608Z,6.90
2017-10-15T11:09:57.275Z,25.23
2017-10-15T11:12:24.952Z,18.70
2017-10-15T11:14:52.556Z,8.17
2017-10-15T11:17:20.210Z,8.93
2017-10-15T11:19:47.831Z,6.73
2017-10-15T11:22:15.510Z,8.77
2017-10-15T11:24:43.228Z,8.80
2017-10-15T11:27:10.831Z,18.73
2017-10-15T11:29:38.435Z,6.07
2017-10-15T11:32:06.164Z,7.37
2017-10-15T11:34:33.771Z,8.30
2017-10-15T11:37:01.396Z,9.40
2017-10-15T11:39:29.112Z,18.57
2017-10-15T11:41:56.791Z,9.83
2017-10-15T11:44:24.454Z,8.20
2017-10-15T11:46:52.108Z,6.77
2017-10-15T11:49:19.784Z,7.43
2017-10-15T11:51:47.415Z,6.97
2017-10-15T11:54:15.088Z,8.43
2017-10-15T11:56:42.691Z,5.50
2017-10-15T11:59:10.356Z,7.40
2017-10-15T12:01:38.020Z,9.77
2017-10-15T12:04:05.623Z,7.30
2017-10-15T12:06:33.227Z,7.07
2017-10-15T12:09:00.943Z,9.10
2017-10-15T12:11:28.555Z,4.87
2017-10-15T12:13:56.294Z,10.13
2017-10-15T12:16:23.954Z,14.10
2017-10-15T12:18:51.671Z,9.00
2017-10-15T12:21:19.339Z,11.27
2017-10-15T12:23:46.995Z,7.20
2017-10-15T12:26:14.615Z,11.40
2017-10-15T12:28:42.293Z,9.70
2017-10-15T12:31:10.018Z,15.67
2017-10-15T12:33:37.694Z,9.33
2017-10-15T12:36:05.351Z,10.93
2017-10-15T12:38:33.035Z,10.80
2017-10-15T12:41:00.643Z,7.70
2017-10-15T12:43:28.307Z,6.73
2017-10-15T12:45:55.959Z,9.67
2017-10-15T12:48:23.556Z,9.00
2017-10-15T12:50:51.163Z,7.00
2017-10-15T12:53:18.906Z,16.23
2017-10-15T12:55:46.567Z,10.93
2017-10-15T12:58:14.219Z,6.27
2017-10-15T13:00:41.884Z,6.70
2017-10-15T13:03:09.551Z,15.07
2017-10-15T13:05:37.151Z,9.43
2017-10-15T13:08:04.855Z,8.23
2017-10-15T13:10:32.467Z,10.10
2017-10-15T13:13:00.090Z,11.77
2017-10-15T13:15:27.840Z,13.23
2017-10-15T13:17:55.500Z,9.50
2017-10-15T13:20:23.220Z,9.30
2017-10-15T13:22:50.999Z,12.97
2017-10-15T13:25:18.630Z,7.80
2017-10-15T13:27:46.364Z,7.33
2017-10-15T13:30:14.042Z,12.97
2017-10-15T13:32:41.660Z,15.73
2017-10-15T13:35:09.341Z,10.87
2017-10-15T13:37:36.990Z,7.60
2017-10-15T13:40:04.643Z,9.40
2017-10-15T13:42:32.265Z,10.30
2017-10-15T13:44:59.935Z,7.53
2017-10-15T13:47:27.541Z,7.87
2017-10-15T13:49:55.212Z,8.73
2017-10-15T13:52:22.948Z,7.73
2017-10-15T13:54:50.555Z,9.90
2017-10-15T13:57:18.150Z,8.10
2017-10-15T13:59:45.872Z,11.00
2017-10-15T14:02:13.600Z,8.57
2017-10-15T14:04:41.262Z,16.83
2017-10-15T14:07:08.988Z,9.40
2017-10-15T14:09:36.651Z,13.10
2017-10-15T14:12:04.271Z,12.80
2017-10-15T14:14:32.055Z,23.90
2017-10-15T14:16:59.676Z,10.23
2017-10-15T14:19:27.356Z,10.50
2017-10-15T14:21:55.031Z,10.23
2017-10-15T14:24:22.691Z,12.23
2017-10-15T14:26:50.315Z,18.00
2017-10-15T14:29:17.973Z,17.77
2017-10-15T14:31:45.586Z,16.13
2017-10-15T14:34:13.207Z,12.57
2017-10-15T14:36:40.911Z,18.70
2017-10-15T14:39:08.585Z,21.37
2017-10-15T14:41:36.262Z,31.10
2017-10-15T14:44:03.933Z,34.57
2017-10-15T14:46:31.556Z,30.17
2017-10-15T14:48:59.183Z,35.20
2017-10-15T14:51:26.920Z,41.67
2017-10-15T14:53:54.611Z,37.23
2017-10-15T14:56:22.289Z,25.57
2017-10-15T14:58:50.015Z,22.57
2017-10-15T15:01:17.697Z,27.33
2017-10-15T15:03:45.427Z,31.93
2017-10-15T15:06:13.303Z,24.20
2017-10-15T15:08:41.039Z,33.10
2017-10-15T15:11:08.707Z,22.97
2017-10-15T15:13:36.444Z,28.93
2017-10-15T15:16:04.136Z,28.20
2017-10-15T15:18:31.808Z,41.93
2017-10-15T15:20:59.555Z,26.30
2017-10-15T15:23:27.171Z,29.33
2017-10-15T15:25:54.844Z,32.90
2017-10-15T15:28:22.519Z,23.77
2017-10-15T15:30:50.195Z,28.23
2017-10-15T15:33:18.756Z,20.27
2017-10-15T15:35:46.427Z,27.60
2017-10-15T15:38:14.103Z,33.47
2017-10-15T15:40:41.722Z,38.73
2017-10-15T15:43:09.384Z,35.10
2017-10-15T15:45:37.028Z,32.83
2017-10-15T15:48:04.642Z,27.00
2017-10-15T15:50:32.410Z,36.83
2017-10-15T15:53:00.140Z,31.83
2017-10-15T15:55:27.747Z,27.90
2017-10-15T15:57:55.416Z,41.87
2017-10-15T16:00:23.083Z,32.07
2017-10-15T16:02:50.743Z,38.37
2017-10-15T16:05:18.410Z,31.73
2017-10-15T16:07:46.026Z,31.43
2017-10-15T16:10:13.647Z,32.33
2017-10-15T16:12:41.340Z,28.10
2017-10-15T16:15:09.052Z,37.33
2017-10-15T16:17:36.687Z,34.53
2017-10-15T16:20:04.356Z,47.17
2017-10-15T16:22:31.989Z,44.13
2017-10-15T16:24:59.671Z,35.93
2017-10-15T16:27:27.387Z,41.37
2017-10-15T16:29:55.085Z,28.90
2017-10-15T16:32:22.691Z,65.43
2017-10-15T16:34:50.428Z,46.77
2017-10-15T16:37:18.051Z,55.63
2017-10-15T16:39:45.664Z,46.87
2017-10-15T16:42:13.392Z,34.43
2017-10-15T16:44:41.063Z,32.30
2017-10-15T16:47:08.716Z,28.47
2017-10-15T16:49:36.435Z,28.80
2017-10-15T16:52:04.059Z,44.27
2017-10-15T16:54:31.731Z,44.60
2017-10-15T16:56:59.399Z,45.77
2017-10-15T16:59:27.011Z,60.60
2017-10-15T17:01:54.735Z,85.60
2017-10-15T17:04:22.407Z,126.80
2017-10-15T17:06:50.103Z,110.97
2017-10-15T17:09:18.399Z,92.97
2017-10-15T17:11:46.071Z,90.00
2017-10-15T17:14:13.702Z,80.63
2017-10-15T17:16:41.375Z,53.37
2017-10-15T17:19:09.106Z,47.37
2017-10-15T17:21:36.835Z,109.47
2017-10-15T17:24:04.456Z,77.93
2017-10-15T17:26:32.170Z,57.27
2017-10-15T17:28:59.791Z,62.60
2017-10-15T17:31:27.504Z,52.60
2017-10-15T17:33:55.271Z,43.83
2017-10-15T17:36:22.944Z,48.93
2017-10-15T17:38:50.699Z,52.07
2017-10-15T17:41:18.415Z,42.07
2017-10-15T17:43:46.068Z,40.60
2017-10-15T17:46:13.687Z,45.07
2017-10-15T17:48:41.375Z,46.93
2017-10-15T17:51:09.067Z,52.83
2017-10-15T17:53:36.743Z,36.50
2017-10-15T17:56:04.415Z,44.40
2017-10-15T17:58:32.099Z,173.87
2017-10-15T18:00:59.867Z,113.77
2017-10-15T18:03:27.563Z,109.30
2017-10-15T18:05:55.262Z,104.57
2017-10-15T18:08:22.903Z,107.90
2017-10-15T18:10:50.623Z,125.70
2017-10-15T18:13:18.307Z,128.97
2017-10-15T18:15:45.982Z,68.43
2017-10-15T18:18:13.650Z,46.30
2017-10-15T18:20:41.306Z,55.53
2017-10-15T18:23:08.979Z,38.80
2017-10-15T18:25:36.674Z,41.33
2017-10-15T18:28:04.302Z,34.27
2017-10-15T18:30:31.984Z,32.93
2017-10-15T18:32:59.699Z,37.80
2017-10-15T18:35:27.306Z,24.23
2017-10-15T18:37:54.939Z,43.63
2017-10-15T18:40:22.654Z,32.53
2017-10-15T18:42:50.331Z,25.17
2017-10-15T18:45:17.943Z,23.40
2017-10-15T18:47:45.671Z,20.27
2017-10-15T18:50:13.317Z,23.53
2017-10-15T18:52:40.949Z,29.93
2017-10-15T18:55:08.627Z,23.90
2017-10-15T18:57:36.308Z,18.80
2017-10-15T19:00:03.987Z,37.87
2017-10-15T19:02:31.706Z,18.87
2017-10-15T19:04:59.399Z,17.70
2017-10-15T19:07:27.028Z,20.03
2017-10-15T19:09:54.755Z,14.47
2017-10-15T19:12:22.372Z,15.10
2017-10-15T19:14:49.983Z,24.70
2017-10-15T19:17:17.702Z,18.33
2017-10-15T19:19:45.376Z,18.33
2017-10-15T19:22:13.048Z,22.00
2017-10-15T19:24:40.809Z,19.33
2017-10-15T19:27:08.453Z,22.97
2017-10-15T19:29:36.156Z,31.90
2017-10-15T19:32:03.911Z,26.00
2017-10-15T19:34:31.588Z,24.50
2017-10-15T19:36:59.252Z,14.93
2017-10-15T19:39:26.919Z,18.73
2017-10-15T19:41:54.543Z,15.53
2017-10-15T19:44:22.160Z,15.40
2017-10-15T19:46:49.862Z,11.53
2017-10-15T19:49:17.475Z,12.50
2017-10-15T19:51:45.091Z,14.17
2017-10-15T19:54:12.807Z,10.70
2017-10-15T19:56:40.423Z,12.03
2017-10-15T19:59:08.039Z,14.63
2017-10-15T20:01:35.768Z,27.07
2017-10-15T20:04:03.395Z,13.57
2017-10-15T20:06:31.060Z,16.70
2017-10-15T20:08:58.727Z,21.33
2017-10-15T20:11:26.415Z,26.80
2017-10-15T20:13:54.027Z,30.83
2017-10-15T20:16:21.759Z,28.90
2017-10-15T20:18:49.403Z,27.23
2017-10-15T20:21:17.127Z,33.33
2017-10-15T20:23:44.892Z,28.07
2017-10-15T20:26:12.572Z,41.80
2017-10-15T20:28:40.239Z,27.37
2017-10-15T20:31:07.935Z,26.87
2017-10-15T20:33:35.563Z,25.10
2017-10-15T20:36:03.233Z,37.40
2017-10-15T20:38:30.899Z,29.40
2017-10-15T20:40:58.511Z,27.77
2017-10-15T20:43:26.126Z,31.30
2017-10-15T20:45:53.859Z,40.23
2017-10-15T20:48:21.479Z,36.00
2017-10-15T20:50:49.155Z,38.43
2017-10-15T20:53:16.876Z,30.07
2017-10-15T20:55:44.547Z,33.63
2017-10-15T20:58:12.163Z,31.07
2017-10-15T21:00:39.888Z,37.13
2017-10-15T21:03:07.508Z,37.73
2017-10-15T21:05:35.240Z,45.00
2017-10-15T21:08:02.899Z,35.30
2017-10-15T21:10:30.519Z,37.20
2017-10-15T21:12:58.196Z,38.37
2017-10-15T21:15:25.859Z,31.40
2017-10-15T21:17:53.465Z,31.43
2017-10-15T21:20:21.091Z,36.93
2017-10-15T21:22:48.807Z,25.60
2017-10-15T21:25:16.491Z,32.90
2017-10-15T21:27:44.169Z,26.97
2017-10-15T21:30:11.901Z,30.70
2017-10-15T21:32:39.515Z,30.63
2017-10-15T21:35:07.152Z,26.70
2017-10-15T21:37:34.827Z,36.00
2017-10-15T21:40:02.536Z,26.03
2017-10-15T21:42:30.207Z,43.40
2017-10-15T21:44:57.939Z,29.07
2017-10-15T21:47:25.563Z,27.70
2017-10-15T21:49:53.245Z,31.87
2017-10-15T21:52:20.918Z,30.67
2017-10-15T21:54:48.592Z,28.50
2017-10-15T21:57:16.218Z,28.70
2017-10-15T21:59:43.948Z,31.70
2017-10-15T22:02:11.564Z,33.10
2017-10-15T22:04:39.245Z,32.40
2017-10-15T22:07:07.031Z,31.70
2017-10-15T22:09:34.671Z,41.73
2017-10-15T22:12:02.294Z,35.43
2017-10-15T22:14:30.017Z,43.63
2017-10-15T22:16:57.700Z,55.43
2017-10-15T22:19:25.316Z,56.60
2017-10-15T22:21:58.400Z,49.40
2017-10-15T22:24:26.090Z,37.87
2017-10-15T22:26:53.707Z,47.73
2017-10-15T22:29:21.377Z,38.93
2017-10-15T22:31:49.060Z,40.33
2017-10-15T22:34:16.671Z,36.80
2017-10-15T22:36:44.411Z,29.10
2017-10-15T22:39:12.030Z,28.60
2017-10-15T22:41:39.655Z,29.40
2017-10-15T22:44:07.383Z,38.57
2017-10-15T22:46:34.999Z,31.17
2017-10-15T22:49:02.631Z,33.67
2017-10-15T22:51:30.344Z,28.90
2017-10-15T22:53:57.950Z,37.73
2017-10-15T22:56:25.571Z,33.63
2017-10-15T22:58:53.327Z,26.53
2017-10-15T23:01:20.999Z,25.90
2017-10-15T23:03:48.676Z,25.73
2017-10-15T23:06:16.341Z,29.23
2017-10-15T23:08:43.963Z,23.07
2017-10-15T23:11:11.581Z,35.10
2017-10-15T23:13:39.255Z,29.57
2017-10-15T23:16:06.871Z,25.90
2017-10-15T23:18:34.543Z,31.40
2017-10-15T23:21:02.211Z,33.03
2017-10-15T23:23:29.820Z,31.37
2017-10-15T23:25:57.498Z,28.43
2017-10-15T23:28:25.155Z,29.30
2017-10-15T23:30:52.768Z,29.50
2017-10-15T23:33:20.383Z,26.97
2017-10-15T23:35:48.108Z,21.20
2017-10-15T23:38:15.718Z,29.27
2017-10-15T23:40:43.327Z,36.07
2017-10-15T23:43:11.003Z,27.53
2017-10-15T23:45:38.697Z,21.03
2017-10-15T23:48:06.327Z,22.57
2017-10-15T23:50:34.019Z,22.53
2017-10-15T23:53:01.640Z,21.77
2017-10-15T23:55:29.270Z,28.23
2017-10-15T23:57:56.940Z,23.00
